Time;durP1;ratioP1;P1;durP2;ratioP2;P2;SDS_P1;SDS_P2;PMS_P1;PMS_P2;Temp;Humidity;BMP_temperature;BMP_pressure;BME280_temperature;BME280_humidity;BME280_pressure;Samples;Min_cycle;Max_cycle;Signal;HPM_P1;HPM_P2
2023/04/23 00:02:05;;;;;;;;;26.50;23.50;22.50;38.90;;;;;;109874;1258;49997;-59
2023/04/23 00:04:33;;;;;;;;;28.00;26.33;22.50;39.00;;;;;;109988;1252;45964;-58
2023/04/23 00:07:02;;;;;;;;;27.00;25.50;22.50;39.00;;;;;;109931;1257;56707;-58
2023/04/23 00:09:31;;;;;;;;;23.50;22.00;22.40;38.90;;;;;;109959;1257;53667;-58
2023/04/23 00:11:59;;;;;;;;;27.50;26.00;22.50;39.00;;;;;;109988;1252;49914;-59
2023/04/23 00:14:27;;;;;;;;;28.33;27.00;22.40;38.90;;;;;;110019;1252;50006;-58
2023/04/23 00:16:55;;;;;;;;;26.00;25.00;22.40;38.90;;;;;;109934;1254;45495;-58
2023/04/23 00:19:22;;;;;;;;;30.00;27.00;22.40;38.90;;;;;;109945;1255;56521;-58
2023/04/23 00:21:49;;;;;;;;;28.00;26.00;22.40;38.90;;;;;;109916;1252;55596;-58
2023/04/23 00:24:16;;;;;;;;;27.67;26.67;22.40;38.90;;;;;;109950;1256;49856;-58
2023/04/23 00:26:43;;;;;;;;;28.00;25.00;22.40;39.00;;;;;;109894;1256;49712;-58
2023/04/23 00:29:09;;;;;;;;;28.00;26.00;22.40;39.00;;;;;;109915;1257;45493;-58
2023/04/23 00:31:37;;;;;;;;;28.50;25.00;22.40;39.20;;;;;;109979;1252;55343;-58
2023/04/23 00:34:03;;;;;;;;;25.00;24.00;22.40;39.00;;;;;;110026;1252;54241;-58
2023/04/23 00:36:30;;;;;;;;;25.00;23.00;22.40;39.20;;;;;;110042;1252;49611;-57
2023/04/23 00:38:57;;;;;;;;;29.00;27.00;22.30;38.90;;;;;;109959;1252;49415;-58
2023/04/23 00:41:24;;;;;;;;;25.50;24.00;22.30;39.10;;;;;;109916;1252;45186;-58
2023/04/23 00:43:51;;;;;;;;;25.00;24.00;22.30;38.90;;;;;;109925;1255;55538;-58
2023/04/23 00:46:19;;;;;;;;;28.75;25.75;22.30;39.00;;;;;;109926;1255;53708;-58
2023/04/23 00:48:47;;;;;;;;;28.00;26.00;22.30;39.00;;;;;;109947;1252;50540;-57
2023/04/23 00:51:15;;;;;;;;;31.50;28.50;22.30;39.00;;;;;;109947;1252;49232;-59
2023/04/23 00:53:42;;;;;;;;;32.00;28.67;22.30;38.60;;;;;;110120;1252;45636;-56
2023/04/23 00:56:09;;;;;;;;;31.00;27.00;22.30;39.10;;;;;;109980;1252;55823;-57
2023/04/23 00:58:37;;;;;;;;;33.50;29.00;22.30;39.00;;;;;;110069;1252;54124;-60
2023/04/23 01:01:05;;;;;;;;;27.00;26.00;22.30;39.00;;;;;;110027;1255;51047;-62
2023/04/23 01:03:35;;;;;;;;;30.00;28.00;22.30;39.20;;;;;;109982;1256;50512;-58
2023/04/23 01:06:03;;;;;;;;;27.00;26.00;22.30;39.10;;;;;;109980;1255;45522;-58
2023/04/23 01:08:31;;;;;;;;;28.50;25.50;22.20;39.00;;;;;;110074;1257;55923;-58
2023/04/23 01:10:58;;;;;;;;;29.00;28.00;22.30;39.00;;;;;;110052;1252;54273;-57
2023/04/23 01:13:28;;;;;;;;;29.00;26.75;22.20;39.00;;;;;;110052;1255;49147;-57
2023/04/23 01:15:55;;;;;;;;;26.50;24.00;22.20;39.20;;;;;;109904;1255;49402;-57
2023/04/23 01:18:23;;;;;;;;;29.00;25.33;22.20;38.90;;;;;;109982;1256;45902;-57
2023/04/23 01:20:50;;;;;;;;;30.00;27.00;22.20;39.20;;;;;;109928;1252;55807;-58
2023/04/23 01:23:18;;;;;;;;;31.00;28.50;22.20;39.20;;;;;;109942;1256;53832;-58
2023/04/23 01:25:45;;;;;;;;;30.00;27.00;22.20;39.20;;;;;;110002;1252;49264;-57
2023/04/23 01:28:12;;;;;;;;;32.00;28.50;22.20;39.60;;;;;;109956;1255;50555;-61
2023/04/23 01:30:42;;;;;;;;;26.33;25.00;22.20;39.00;;;;;;109950;1258;45160;-58
2023/04/23 01:33:10;;;;;;;;;30.50;27.50;22.20;39.20;;;;;;110043;1252;55969;-59
2023/04/23 01:35:38;;;;;;;;;31.00;28.00;22.20;39.20;;;;;;110049;1255;54507;-58
2023/04/23 01:38:06;;;;;;;;;30.00;27.00;22.20;39.00;;;;;;109998;1253;50499;-57
2023/04/23 01:40:34;;;;;;;;;29.50;28.00;22.20;39.00;;;;;;110035;1252;49640;-58
2023/04/23 01:43:01;;;;;;;;;31.50;29.50;22.20;39.00;;;;;;110013;1252;46650;-57
2023/04/23 01:45:29;;;;;;;;;31.00;26.50;22.20;39.00;;;;;;110043;1253;57355;-57
2023/04/23 01:47:57;;;;;;;;;28.00;27.00;22.20;39.10;;;;;;109967;1257;54290;-58
2023/04/23 01:50:25;;;;;;;;;30.75;29.00;22.20;39.00;;;;;;110069;1252;51237;-57
2023/04/23 01:52:52;;;;;;;;;31.00;29.00;22.10;39.00;;;;;;110004;1256;49355;-59
2023/04/23 01:55:19;;;;;;;;;30.00;29.00;22.10;39.00;;;;;;109944;1254;46498;-57
2023/04/23 01:57:46;;;;;;;;;26.00;25.00;22.10;39.00;;;;;;109917;1256;56379;-58
2023/04/23 02:00:14;;;;;;;;;28.00;27.00;22.10;39.00;;;;;;109934;1257;53649;-58
2023/04/23 02:02:43;;;;;;;;;29.50;27.50;22.10;39.00;;;;;;109889;1255;49963;-58
2023/04/23 02:05:17;;;;;;;;;29.50;28.50;22.10;39.10;;;;;;109950;1253;49314;-57
2023/04/23 02:07:46;;;;;;;;;32.00;29.00;22.10;39.10;;;;;;109874;1257;46520;-57
2023/04/23 02:10:13;;;;;;;;;33.50;29.50;22.10;39.00;;;;;;109966;1257;55861;-57
2023/04/23 02:12:40;;;;;;;;;31.00;28.00;22.10;39.20;;;;;;110003;1257;54268;-58
2023/04/23 02:15:08;;;;;;;;;26.67;25.33;22.00;39.00;;;;;;110072;1256;49033;-58
2023/04/23 02:17:35;;;;;;;;;29.50;27.50;22.00;39.00;;;;;;110044;1256;50811;-58
2023/04/23 02:20:03;;;;;;;;;29.00;28.00;22.00;39.00;;;;;;109939;1253;45476;-57
2023/04/23 02:22:30;;;;;;;;;32.50;27.00;22.00;39.00;;;;;;109896;1257;55750;-58
2023/04/23 02:24:58;;;;;;;;;36.33;30.00;22.00;39.20;;;;;;109935;1254;53231;-58
2023/04/23 02:27:25;;;;;;;;;33.00;26.33;22.00;39.00;;;;;;109898;1257;50113;-58
2023/04/23 02:29:53;;;;;;;;;29.00;27.00;22.00;39.00;;;;;;109972;1256;50036;-58
2023/04/23 02:32:20;;;;;;;;;28.00;27.00;22.00;39.00;;;;;;109910;1256;47083;-58
2023/04/23 02:34:47;;;;;;;;;31.50;29.00;22.00;39.00;;;;;;109925;1253;55930;-58
2023/04/23 02:37:14;;;;;;;;;31.00;28.33;22.00;39.60;;;;;;109885;1252;54079;-58
2023/04/23 02:39:41;;;;;;;;;26.67;25.33;22.00;39.00;;;;;;109937;1254;49261;-59
2023/04/23 02:42:08;;;;;;;;;32.50;28.50;22.00;39.20;;;;;;109899;1252;49836;-57
2023/04/23 02:44:35;;;;;;;;;35.00;30.00;22.00;39.10;;;;;;109996;1255;46045;-58
2023/04/23 02:47:02;;;;;;;;;30.00;29.00;21.90;39.00;;;;;;109938;1257;55814;-58
2023/04/23 02:49:29;;;;;;;;;33.50;28.50;21.90;39.00;;;;;;109900;1257;53589;-57
2023/04/23 02:51:56;;;;;;;;;33.00;29.00;21.90;39.20;;;;;;109876;1253;50798;-57
2023/04/23 02:54:23;;;;;;;;;34.00;30.00;21.90;39.00;;;;;;109952;1252;49218;-58
2023/04/23 02:56:50;;;;;;;;;30.00;29.00;21.90;39.00;;;;;;109945;1257;46611;-58
2023/04/23 02:59:17;;;;;;;;;28.00;27.00;21.90;39.00;;;;;;109938;1256;55466;-57
2023/04/23 03:01:44;;;;;;;;;39.00;31.00;21.90;39.00;;;;;;109906;1254;54829;-56
2023/04/23 03:04:11;;;;;;;;;32.00;29.00;21.90;39.00;;;;;;109929;1257;49550;-58
2023/04/23 03:06:38;;;;;;;;;31.00;28.00;21.90;39.10;;;;;;109919;1255;49475;-58
2023/04/23 03:09:05;;;;;;;;;31.00;27.00;21.90;39.30;;;;;;109899;1253;46566;-58
2023/04/23 03:11:32;;;;;;;;;34.00;30.50;21.90;39.00;;;;;;109939;1252;55726;-60
2023/04/23 03:13:59;;;;;;;;;30.50;29.50;21.90;39.30;;;;;;109946;1256;54823;-57
2023/04/23 03:16:28;;;;;;;;;30.50;27.50;21.90;39.10;;;;;;109954;1255;50353;-59
2023/04/23 03:18:55;;;;;;;;;27.67;26.33;21.90;39.10;;;;;;109900;1257;49169;-57
2023/04/23 03:21:22;;;;;;;;;31.00;28.00;21.90;39.10;;;;;;109858;1252;45268;-59
2023/04/23 03:23:49;;;;;;;;;33.33;29.33;21.90;39.10;;;;;;109918;1257;55294;-58
2023/04/23 03:26:16;;;;;;;;;30.50;29.00;21.90;39.10;;;;;;109889;1257;55524;-58
2023/04/23 03:28:43;;;;;;;;;33.33;30.00;21.80;39.00;;;;;;109909;1253;50626;-59
2023/04/23 03:31:10;;;;;;;;;32.00;27.00;21.80;39.00;;;;;;109912;1256;49945;-58
2023/04/23 03:33:37;;;;;;;;;29.00;28.00;21.80;39.00;;;;;;109899;1257;46540;-58
2023/04/23 03:36:04;;;;;;;;;34.50;29.00;21.80;39.10;;;;;;109943;1256;55703;-58
2023/04/23 03:38:31;;;;;;;;;31.00;28.00;21.80;39.60;;;;;;109898;1252;54002;-57
2023/04/23 03:40:58;;;;;;;;;36.33;31.67;21.80;39.10;;;;;;109932;1252;49448;-59
2023/04/23 03:43:25;;;;;;;;;30.75;29.25;21.80;39.10;;;;;;109839;1257;49387;-58
2023/04/23 03:45:52;;;;;;;;;34.50;31.50;21.80;39.10;;;;;;109924;1252;46024;-58
2023/04/23 03:48:20;;;;;;;;;33.00;27.50;21.80;39.10;;;;;;109895;1252;56335;-57
2023/04/23 03:50:47;;;;;;;;;35.75;30.00;21.80;39.10;;;;;;109882;1257;54906;-57
2023/04/23 03:53:16;;;;;;;;;33.00;29.00;21.80;39.10;;;;;;109942;1252;49572;-58
2023/04/23 03:55:43;;;;;;;;;37.00;31.00;21.80;39.10;;;;;;109986;1251;50851;-58
2023/04/23 03:58:10;;;;;;;;;32.25;29.25;21.80;39.10;;;;;;109948;1255;46033;-58
2023/04/23 04:00:37;;;;;;;;;30.00;29.00;21.80;39.10;;;;;;109896;1252;55607;-59
2023/04/23 04:03:04;;;;;;;;;31.50;29.50;21.80;39.10;;;;;;109891;1252;53733;-59
2023/04/23 04:05:31;;;;;;;;;28.00;27.00;21.80;39.10;;;;;;109976;1257;49853;-58
2023/04/23 04:07:58;;;;;;;;;36.00;29.00;21.80;39.10;;;;;;109900;1253;49890;-58
2023/04/23 04:10:25;;;;;;;;;30.00;28.00;21.70;39.00;;;;;;109936;1252;45477;-58
2023/04/23 04:12:54;;;;;;;;;30.50;26.00;21.80;39.70;;;;;;109903;1256;55960;-58
2023/04/23 04:15:21;;;;;;;;;30.50;28.00;21.70;39.30;;;;;;109951;1255;54121;-58
2023/04/23 04:17:48;;;;;;;;;33.33;29.00;21.70;39.10;;;;;;109848;1255;48958;-57
2023/04/23 04:20:15;;;;;;;;;30.00;29.00;21.70;39.00;;;;;;109921;1254;49551;-58
2023/04/23 04:22:42;;;;;;;;;33.00;27.00;21.70;39.10;;;;;;109955;1252;45245;-58
2023/04/23 04:25:09;;;;;;;;;35.00;30.00;21.70;39.10;;;;;;109927;1257;55541;-57
2023/04/23 04:27:36;;;;;;;;;28.33;25.67;21.70;39.10;;;;;;109928;1255;54120;-58
2023/04/23 04:30:04;;;;;;;;;36.00;32.00;21.70;39.30;;;;;;109939;1257;49983;-57
2023/04/23 04:32:31;;;;;;;;;34.00;30.50;21.70;39.10;;;;;;109951;1254;49697;-58
2023/04/23 04:34:59;;;;;;;;;30.00;27.67;21.70;39.10;;;;;;109986;1256;45808;-57
2023/04/23 04:37:26;;;;;;;;;30.00;26.00;21.70;39.10;;;;;;109901;1256;55996;-58
2023/04/23 04:39:54;;;;;;;;;31.00;28.00;21.70;39.10;;;;;;109917;1256;54105;-56
2023/04/23 04:42:21;;;;;;;;;28.00;26.00;21.70;39.30;;;;;;109901;1257;51109;-59
2023/04/23 04:44:48;;;;;;;;;29.00;25.00;21.70;39.10;;;;;;109928;1257;50073;-58
2023/04/23 04:47:15;;;;;;;;;31.00;28.00;21.70;39.10;;;;;;109916;1256;46464;-58
2023/04/23 04:49:42;;;;;;;;;31.00;28.00;21.70;39.10;;;;;;109087;1253;1171442;-59
2023/04/23 04:52:10;;;;;;;;;28.50;27.50;21.70;39.10;;;;;;109914;1256;54867;-58
2023/04/23 04:54:37;;;;;;;;;32.00;30.00;21.70;39.10;;;;;;109943;1252;50275;-58
2023/04/23 04:57:03;;;;;;;;;29.00;26.00;21.70;39.20;;;;;;109915;1255;49929;-59
2023/04/23 04:59:30;;;;;;;;;36.00;29.00;21.70;39.10;;;;;;109947;1257;45605;-58
2023/04/23 05:01:58;;;;;;;;;30.75;27.00;21.70;39.10;;;;;;109918;1255;56448;-58
2023/04/23 05:04:25;;;;;;;;;34.67;31.00;21.70;39.10;;;;;;109973;1252;53799;-58
2023/04/23 05:06:52;;;;;;;;;38.00;32.00;21.70;39.10;;;;;;109880;1256;49902;-58
2023/04/23 05:09:19;;;;;;;;;31.00;29.00;21.70;39.10;;;;;;109951;1252;49826;-57
2023/04/23 05:11:46;;;;;;;;;29.50;27.50;21.70;39.10;;;;;;109935;1256;46013;-57
2023/04/23 05:14:13;;;;;;;;;29.00;26.00;21.70;39.10;;;;;;110053;1252;56619;-59
2023/04/23 05:16:40;;;;;;;;;32.00;29.00;21.60;39.10;;;;;;109973;1257;54429;-58
2023/04/23 05:19:07;;;;;;;;;31.00;28.00;21.70;39.40;;;;;;109997;1252;49209;-58
2023/04/23 05:21:34;;;;;;;;;27.00;24.00;21.60;39.00;;;;;;109941;1255;50624;-58
2023/04/23 05:24:01;;;;;;;;;26.50;25.00;21.60;39.10;;;;;;109997;1256;45947;-57
2023/04/23 05:26:28;;;;;;;;;33.00;30.50;21.60;39.10;;;;;;109963;1252;56836;-56
2023/04/23 05:28:55;;;;;;;;;32.50;29.00;21.60;39.10;;;;;;109931;1254;53765;-58
2023/04/23 05:31:22;;;;;;;;;33.00;29.00;21.60;39.10;;;;;;109944;1257;49414;-57
2023/04/23 05:33:49;;;;;;;;;36.50;31.00;21.60;39.30;;;;;;109997;1252;49280;-58
2023/04/23 05:36:16;;;;;;;;;36.00;31.00;21.60;39.20;;;;;;110034;1256;45195;-57
2023/04/23 05:38:43;;;;;;;;;38.50;31.50;21.60;39.40;;;;;;109999;1257;56551;-58
2023/04/23 05:41:10;;;;;;;;;43.00;37.00;21.60;39.20;;;;;;110044;1254;53898;-58
2023/04/23 05:43:37;;;;;;;;;43.00;35.00;21.60;39.10;;;;;;109963;1252;49926;-58
2023/04/23 05:46:06;;;;;;;;;44.33;36.00;21.60;39.20;;;;;;109955;1252;50627;-58
2023/04/23 05:48:33;;;;;;;;;49.00;36.00;21.60;39.20;;;;;;109899;1257;45381;-58
2023/04/23 05:51:00;;;;;;;;;48.00;39.00;21.60;39.10;;;;;;109912;1255;55413;-57
2023/04/23 05:53:27;;;;;;;;;;;21.60;39.20;;;;;;109924;1252;53536;-58
2023/04/23 05:55:54;;;;;;;;;48.00;39.00;21.60;39.40;;;;;;109949;1256;50514;-59
2023/04/23 05:58:21;;;;;;;;;57.50;44.00;21.60;39.20;;;;;;109971;1252;49897;-57
2023/04/23 06:00:49;;;;;;;;;50.00;40.00;21.60;39.20;;;;;;109962;1252;45931;-58
2023/04/23 06:03:16;;;;;;;;;57.00;44.67;21.60;39.40;;;;;;109878;1256;56163;-58
2023/04/23 06:05:43;;;;;;;;;58.00;46.00;21.60;39.20;;;;;;109898;1255;53447;-58
2023/04/23 06:08:09;;;;;;;;;59.00;44.00;21.60;39.50;;;;;;110011;1256;50203;-58
2023/04/23 06:10:36;;;;;;;;;57.00;44.00;21.60;39.20;;;;;;109980;1255;49992;-57
2023/04/23 06:13:03;;;;;;;;;60.33;45.67;21.60;39.20;;;;;;110024;1256;45419;-59
2023/04/23 06:15:30;;;;;;;;;56.00;44.00;21.60;39.20;;;;;;109895;1256;55969;-57
2023/04/23 06:17:57;;;;;;;;;60.00;45.50;21.60;39.20;;;;;;109908;1254;53693;-58
2023/04/23 06:20:25;;;;;;;;;59.00;46.50;21.60;39.20;;;;;;109879;1256;49408;-57
2023/04/23 06:22:52;;;;;;;;;60.00;46.00;21.60;39.20;;;;;;109901;1254;49972;-58
2023/04/23 06:25:19;;;;;;;;;63.00;46.00;21.60;39.30;;;;;;109863;1252;45680;-58
2023/04/23 06:27:46;;;;;;;;;57.00;46.00;21.60;39.20;;;;;;109903;1254;56688;-58
2023/04/23 06:30:13;;;;;;;;;59.00;45.75;21.60;39.20;;;;;;109875;1254;55110;-58
2023/04/23 06:32:40;;;;;;;;;59.00;47.00;21.60;39.20;;;;;;109939;1252;50025;-58
2023/04/23 06:35:07;;;;;;;;;58.33;45.67;21.60;39.20;;;;;;109944;1252;49766;-58
2023/04/23 06:37:34;;;;;;;;;59.00;46.00;21.60;39.20;;;;;;109925;1256;45309;-57
2023/04/23 06:40:01;;;;;;;;;65.00;47.00;21.60;39.20;;;;;;109950;1252;56283;-57
2023/04/23 06:42:28;;;;;;;;;61.00;47.00;21.60;39.20;;;;;;109913;1257;53776;-58
2023/04/23 06:44:58;;;;;;;;;65.50;48.00;21.60;39.20;;;;;;109885;1254;49766;-58
2023/04/23 06:47:24;;;;;;;;;62.00;48.00;21.60;39.40;;;;;;109948;1256;49930;-57
2023/04/23 06:49:51;;;;;;;;;63.50;48.50;21.60;39.20;;;;;;109886;1256;46684;-58
2023/04/23 06:52:18;;;;;;;;;60.00;44.67;21.60;39.20;;;;;;109917;1252;56964;-57
2023/04/23 06:54:45;;;;;;;;;62.00;48.33;21.60;39.70;;;;;;109924;1255;53231;-57
2023/04/23 06:57:12;;;;;;;;;64.00;49.50;21.60;39.20;;;;;;109900;1252;50073;-58
2023/04/23 06:59:39;;;;;;;;;59.00;45.00;21.60;39.20;;;;;;109933;1257;49030;-58
2023/04/23 07:02:06;;;;;;;;;59.50;46.00;21.70;39.30;;;;;;109958;1252;45337;-57
2023/04/23 07:04:33;;;;;;;;;60.50;47.00;21.60;39.20;;;;;;109982;1257;55542;-57
2023/04/23 07:07:00;;;;;;;;;65.00;49.00;21.60;38.70;;;;;;109931;1252;53424;-58
2023/04/23 07:09:27;;;;;;;;;60.67;47.00;21.70;39.30;;;;;;109904;1254;52194;-56
2023/04/23 07:11:54;;;;;;;;;62.00;47.67;21.70;39.30;;;;;;109975;1252;49760;-57
2023/04/23 07:14:21;;;;;;;;;64.00;50.00;21.70;39.30;;;;;;110004;1255;46482;-59
2023/04/23 07:16:48;;;;;;;;;62.33;49.67;21.70;39.30;;;;;;109964;1256;55994;-60
2023/04/23 07:19:15;;;;;;;;;63.00;49.00;21.70;39.30;;;;;;109996;1253;54703;-57
2023/04/23 07:21:42;;;;;;;;;63.00;50.00;21.70;39.30;;;;;;110076;1255;49100;-57
2023/04/23 07:24:10;;;;;;;;;64.50;50.00;21.70;39.30;;;;;;110024;1252;49082;-57
2023/04/23 07:26:37;;;;;;;;;64.00;48.00;21.70;39.30;;;;;;109920;1252;45715;-58
2023/04/23 07:29:05;;;;;;;;;63.50;48.00;21.70;39.30;;;;;;109959;1256;55384;-58
2023/04/23 07:31:33;;;;;;;;;65.00;52.00;21.70;39.40;;;;;;109953;1252;53957;-58
2023/04/23 07:34:00;;;;;;;;;67.50;50.50;21.70;39.30;;;;;;109922;1256;48936;-58
2023/04/23 07:36:27;;;;;;;;;65.00;51.00;21.70;39.50;;;;;;109910;1257;49626;-58
2023/04/23 07:38:54;;;;;;;;;58.00;45.00;21.70;39.30;;;;;;109964;1252;45834;-58
2023/04/23 07:41:21;;;;;;;;;62.00;49.00;21.70;39.30;;;;;;109990;1255;55592;-58
2023/04/23 07:43:48;;;;;;;;;64.00;48.00;21.70;39.30;;;;;;109973;1256;54152;-58
2023/04/23 07:46:15;;;;;;;;;62.00;48.00;21.70;39.30;;;;;;109944;1257;49146;-59
2023/04/23 07:48:42;;;;;;;;;61.50;48.50;21.70;39.30;;;;;;110034;1254;52900;-58
2023/04/23 07:51:09;;;;;;;;;64.33;49.00;21.70;39.20;;;;;;110042;1252;45977;-58
2023/04/23 07:53:36;;;;;;;;;63.50;50.00;21.70;39.30;;;;;;109967;1255;55683;-56
2023/04/23 07:56:03;;;;;;;;;65.50;49.50;21.70;38.70;;;;;;109965;1257;54143;-57
2023/04/23 07:58:32;;;;;;;;;62.00;49.50;21.70;39.20;;;;;;109880;1254;49853;-56
2023/04/23 08:00:59;;;;;;;;;64.50;48.50;21.70;39.70;;;;;;109978;1252;49590;-57
2023/04/23 08:03:27;;;;;;;;;64.67;48.67;21.70;39.40;;;;;;109906;1257;45671;-57
2023/04/23 08:05:55;;;;;;;;;64.50;50.25;21.70;39.40;;;;;;109968;1253;55638;-58
2023/04/23 08:08:22;;;;;;;;;61.00;48.00;21.70;39.20;;;;;;109949;1256;53914;-57
2023/04/23 08:10:49;;;;;;;;;61.67;46.33;21.70;39.20;;;;;;109969;1255;50859;-58
2023/04/23 08:13:16;;;;;;;;;67.00;51.00;21.70;39.20;;;;;;109902;1252;49196;-58
2023/04/23 08:15:43;;;;;;;;;61.00;46.50;21.80;39.30;;;;;;110007;1256;45405;-58
2023/04/23 08:18:10;;;;;;;;;65.00;50.00;21.70;39.20;;;;;;109880;1252;55586;-57
2023/04/23 08:20:37;;;;;;;;;64.00;50.00;21.80;39.20;;;;;;109909;1254;53382;-58
2023/04/23 08:23:04;;;;;;;;;60.00;46.50;21.80;39.30;;;;;;109886;1256;49920;-58
2023/04/23 08:25:31;;;;;;;;;62.00;48.50;21.80;39.30;;;;;;109963;1257;50691;-57
2023/04/23 08:27:58;;;;;;;;;58.00;46.00;21.80;39.20;;;;;;109906;1252;45410;-57
2023/04/23 08:30:25;;;;;;;;;57.50;46.50;21.80;39.20;;;;;;109915;1252;55562;-58
2023/04/23 08:32:52;;;;;;;;;63.50;48.00;21.80;39.40;;;;;;109949;1252;53583;-58
2023/04/23 08:35:20;;;;;;;;;62.33;47.33;21.80;39.20;;;;;;110050;1255;50321;-58
2023/04/23 08:37:47;;;;;;;;;58.00;45.00;21.80;39.20;;;;;;109926;1255;49757;-58
2023/04/23 08:40:15;;;;;;;;;63.00;48.00;21.80;39.20;;;;;;109884;1257;45338;-57
2023/04/23 08:42:52;;;;;;;;;61.00;47.00;21.90;39.30;;;;;;109886;1257;55074;-59
2023/04/23 08:45:20;;;;;;;;;59.00;44.00;21.90;39.20;;;;;;109941;1254;54101;-57
2023/04/23 08:47:47;;;;;;;;;62.50;47.00;21.90;39.20;;;;;;109982;1252;50068;-59
2023/04/23 08:50:18;;;;;;;;;53.00;44.00;21.90;39.10;;;;;;109951;1257;49720;-58
2023/04/23 08:52:49;;;;;;;;;59.00;44.00;22.00;39.30;;;;;;110080;1252;45411;-56
2023/04/23 08:55:17;;;;;;;;;63.50;47.00;22.00;39.20;;;;;;110035;1257;55262;-58
2023/04/23 08:57:45;;;;;;;;;56.00;44.50;22.00;39.30;;;;;;110039;1252;54013;-58
2023/04/23 09:00:15;;;;;;;;;57.00;43.50;22.10;38.70;;;;;;109990;1252;48938;-58
2023/04/23 09:02:45;;;;;;;;;54.00;43.00;22.20;39.40;;;;;;109995;1253;50667;-59
2023/04/23 09:05:12;;;;;;;;;60.00;46.00;22.20;39.20;;;;;;109989;1254;45323;-57
2023/04/23 09:07:40;;;;;;;;;54.00;44.00;22.30;39.50;;;;;;110122;1257;56224;-58
2023/04/23 09:10:10;;;;;;;;;62.00;46.00;22.30;39.20;;;;;;109916;1257;54364;-58
2023/04/23 09:12:39;;;;;;;;;61.67;45.33;22.40;39.20;;;;;;110027;1252;49517;-58
2023/04/23 09:15:09;;;;;;;;;61.00;46.00;22.40;39.10;;;;;;110016;1252;49785;-58
2023/04/23 09:17:42;;;;;;;;;57.00;45.00;22.40;39.00;;;;;;109940;1257;45955;-58
2023/04/23 09:20:10;;;;;;;;;54.00;45.00;22.50;39.10;;;;;;109931;1252;56393;-58
2023/04/23 09:22:37;;;;;;;;;53.67;42.33;22.50;38.90;;;;;;109966;1252;54077;-59
2023/04/23 09:25:06;;;;;;;;;54.00;43.00;22.50;39.00;;;;;;109929;1254;49667;-58
2023/04/23 09:27:35;;;;;;;;;54.00;44.00;22.60;38.90;;;;;;109972;1256;49567;-57
2023/04/23 09:30:06;;;;;;;;;54.00;42.00;22.60;38.90;;;;;;110044;1256;45895;-58
2023/04/23 09:32:34;;;;;;;;;52.00;41.00;22.60;38.80;;;;;;109950;1256;56575;-58
2023/04/23 09:35:06;;;;;;;;;55.00;42.50;22.70;38.80;;;;;;109953;1252;54131;-58
2023/04/23 09:37:34;;;;;;;;;55.00;42.00;22.70;38.90;;;;;;109947;1256;50616;-56
2023/04/23 09:40:09;;;;;;;;;57.00;44.00;22.70;38.70;;;;;;109953;1252;50107;-58
2023/04/23 09:42:36;;;;;;;;;53.50;42.50;22.70;38.70;;;;;;109967;1252;46174;-58
2023/04/23 09:45:05;;;;;;;;;51.00;40.50;22.70;38.70;;;;;;110002;1252;56782;-58
2023/04/23 09:47:39;;;;;;;;;53.25;41.50;22.70;38.70;;;;;;109956;1252;54462;-57
2023/04/23 09:50:09;;;;;;;;;54.00;42.50;22.70;38.60;;;;;;109965;1255;49267;-58
2023/04/23 09:52:39;;;;;;;;;53.00;43.50;22.80;38.70;;;;;;109995;1256;50704;-58
2023/04/23 09:55:07;;;;;;;;;48.00;41.00;22.80;38.70;;;;;;110022;1257;45598;-58
2023/04/23 09:57:39;;;;;;;;;48.00;39.00;22.80;39.00;;;;;;109922;1252;56777;-59
2023/04/23 10:00:15;;;;;;;;;49.00;39.00;22.80;38.70;;;;;;109937;1256;53996;-57
2023/04/23 10:02:46;;;;;;;;;51.67;39.33;22.80;38.70;;;;;;110011;1256;49786;-58
2023/04/23 10:05:21;;;;;;;;;47.00;38.00;22.80;38.70;;;;;;109962;1256;50390;-59
2023/04/23 10:07:48;;;;;;;;;53.00;42.00;22.80;38.70;;;;;;109983;1252;46009;-58
2023/04/23 10:10:16;;;;;;;;;56.50;44.00;22.80;38.70;;;;;;109957;1257;56686;-58
2023/04/23 10:12:44;;;;;;;;;49.00;40.00;22.80;38.70;;;;;;109974;1252;53925;-57
2023/04/23 10:15:12;;;;;;;;;49.00;40.00;22.80;38.70;;;;;;109950;1252;49454;-59
2023/04/23 10:17:40;;;;;;;;;48.00;39.00;22.80;38.70;;;;;;109985;1256;50575;-58
2023/04/23 10:20:08;;;;;;;;;48.50;37.50;22.80;38.70;;;;;;110015;1252;45854;-57
2023/04/23 10:22:37;;;;;;;;;48.50;39.50;22.80;38.70;;;;;;109963;1257;55770;-58
2023/04/23 10:25:08;;;;;;;;;47.00;40.00;22.80;38.70;;;;;;109980;1257;53427;-58
2023/04/23 10:27:41;;;;;;;;;47.00;38.50;22.80;38.70;;;;;;109964;1252;49312;-58
2023/04/23 10:30:10;;;;;;;;;53.00;41.00;22.90;38.80;;;;;;109943;1256;50352;-58
2023/04/23 10:32:38;;;;;;;;;46.50;38.00;22.90;38.70;;;;;;110016;1254;46046;-58
2023/04/23 10:35:06;;;;;;;;;50.50;40.00;22.90;38.70;;;;;;110002;1258;56132;-58
2023/04/23 10:37:35;;;;;;;;;48.00;38.00;22.90;38.80;;;;;;110075;1253;54628;-58
2023/04/23 10:40:13;;;;;;;;;43.00;35.00;22.90;38.80;;;;;;109992;1255;50769;-57
2023/04/23 10:42:42;;;;;;;;;46.00;35.00;22.90;38.70;;;;;;109944;1255;50698;-58
2023/04/23 10:45:13;;;;;;;;;50.50;39.00;23.00;38.80;;;;;;109980;1252;45993;-59
2023/04/23 10:47:42;;;;;;;;;52.00;40.00;23.00;38.70;;;;;;109918;1252;55473;-58
2023/04/23 10:50:26;;;;;;;;;47.00;38.67;23.10;38.80;;;;;;109956;1252;54262;-58
2023/04/23 10:52:55;;;;;;;;;45.33;37.33;23.10;38.70;;;;;;109986;1257;49856;-58
2023/04/23 10:55:24;;;;;;;;;;;23.10;38.70;;;;;;110108;1254;50410;-58
2023/04/23 10:58:05;;;;;;;;;44.00;38.00;23.20;38.80;;;;;;109962;1251;45628;-58
2023/04/23 11:00:44;;;;;;;;;45.33;36.00;23.20;38.70;;;;;;110045;1257;55200;-59
2023/04/23 11:03:31;;;;;;;;;44.00;36.50;23.20;38.60;;;;;;110027;1255;54829;-59
2023/04/23 11:06:02;;;;;;;;;45.00;38.00;23.30;38.60;;;;;;110229;1253;49738;-57
2023/04/23 11:08:32;;;;;;;;;44.00;36.00;23.30;38.60;;;;;;109916;1253;49789;-58
2023/04/23 11:11:01;;;;;;;;;48.00;39.00;23.40;38.60;;;;;;109911;1257;45208;-58
2023/04/23 11:13:29;;;;;;;;;43.00;34.00;23.40;38.60;;;;;;109896;1258;55177;-59
2023/04/23 11:16:13;;;;;;;;;48.00;40.00;23.40;38.80;;;;;;109806;1258;54689;-58
2023/04/23 11:19:01;;;;;;;;;50.00;40.00;23.40;38.50;;;;;;110024;1252;50361;-58
2023/04/23 11:21:56;;;;;;;;;42.50;36.50;23.50;38.50;;;;;;109999;1252;48947;-57
2023/04/23 11:24:27;;;;;;;;;45.00;35.50;23.50;38.60;;;;;;109990;1252;46832;-58
2023/04/23 11:26:54;;;;;;;;;46.75;38.75;23.60;38.60;;;;;;109929;1253;55597;-58
2023/04/23 11:29:24;;;;;;;;;48.00;37.00;23.60;38.50;;;;;;109929;1252;53745;-57
2023/04/23 11:31:52;;;;;;;;;42.00;35.00;23.60;38.40;;;;;;109921;1252;49993;-58
2023/04/23 11:34:20;;;;;;;;;43.00;37.00;23.60;38.50;;;;;;110007;1255;49757;-57
2023/04/23 11:36:50;;;;;;;;;42.00;36.00;23.60;38.40;;;;;;109911;1252;45535;-59
2023/04/23 11:39:18;;;;;;;;;40.00;34.00;23.60;38.60;;;;;;109916;1257;56172;-59
2023/04/23 11:41:49;;;;;;;;;44.00;36.00;23.60;38.40;;;;;;110010;1256;54065;-57
2023/04/23 11:44:15;;;;;;;;;42.25;34.00;23.60;38.40;;;;;;110071;1255;49079;-59
2023/04/23 11:46:46;;;;;;;;;40.00;33.33;23.60;38.40;;;;;;110010;1254;49346;-59
2023/04/23 11:49:13;;;;;;;;;42.50;33.50;23.60;38.40;;;;;;109977;1254;46540;-59
2023/04/23 11:51:44;;;;;;;;;41.50;32.50;23.60;38.40;;;;;;109991;1254;56302;-59
2023/04/23 11:54:12;;;;;;;;;38.33;32.33;23.60;38.40;;;;;;109983;1257;54406;-58
2023/04/23 11:56:40;;;;;;;;;41.00;35.00;23.50;38.40;;;;;;109952;1252;50219;-57
2023/04/23 11:59:07;;;;;;;;;40.00;34.00;23.50;38.30;;;;;;109918;1255;50714;-57
2023/04/23 12:01:46;;;;;;;;;42.00;35.00;23.60;38.40;;;;;;109963;1252;45549;-59
2023/04/23 12:04:19;;;;;;;;;39.00;32.00;23.50;38.50;;;;;;110033;1252;56864;-58
2023/04/23 12:06:48;;;;;;;;;45.33;36.00;23.50;38.40;;;;;;110005;1253;54783;-59
2023/04/23 12:09:17;;;;;;;;;43.50;35.50;23.50;38.40;;;;;;109924;1255;49733;-58
2023/04/23 12:11:44;;;;;;;;;40.00;34.00;23.50;38.30;;;;;;109905;1256;48914;-58
2023/04/23 12:14:13;;;;;;;;;44.00;36.67;23.50;38.60;;;;;;110011;1257;46053;-59
2023/04/23 12:16:43;;;;;;;;;39.00;33.00;23.50;38.60;;;;;;109941;1252;56353;-58
2023/04/23 12:19:19;;;;;;;;;43.00;35.00;23.50;38.40;;;;;;110054;1257;53806;-59
2023/04/23 12:21:55;;;;;;;;;39.00;33.00;23.50;38.50;;;;;;109935;1252;49893;-58
2023/04/23 12:24:27;;;;;;;;;41.00;33.00;23.50;38.50;;;;;;109967;1252;49989;-58